Map

Track Data

SID SEASON NUMBER BASIN SUBBASIN NAME ISO_TIME NATURE LAT LON WMO_WIND WMO_PRES WMO_AGENCY TRACK_TYPE DIST2LAND LANDFALL IFLAG USA_AGENCY USA_ATCF_ID USA_LAT USA_LON USA_RECORD USA_STATUS USA_WIND USA_PRES USA_SSHS USA_R34_NE USA_R34_SE USA_R34_SW USA_R34_NW USA_R50_NE USA_R50_SE USA_R50_SW USA_R50_NW USA_R64_NE USA_R64_SE USA_R64_SW USA_R64_NW USA_POCI USA_ROCI USA_RMW USA_EYE TOKYO_LAT TOKYO_LON TOKYO_GRADE TOKYO_WIND TOKYO_PRES TOKYO_R50_DIR TOKYO_R50_LONG TOKYO_R50_SHORT TOKYO_R30_DIR TOKYO_R30_LONG TOKYO_R30_SHORT TOKYO_LAND CMA_LAT CMA_LON CMA_CAT CMA_WIND CMA_PRES HKO_LAT HKO_LON HKO_CAT HKO_WIND HKO_PRES NEWDELHI_LAT NEWDELHI_LON NEWDELHI_GRADE NEWDELHI_WIND NEWDELHI_PRES NEWDELHI_CI NEWDELHI_DP NEWDELHI_POCI REUNION_LAT REUNION_LON REUNION_TYPE REUNION_WIND REUNION_PRES REUNION_TNUM REUNION_CI REUNION_RMW REUNION_R34_NE REUNION_R34_SE REUNION_R34_SW REUNION_R34_NW REUNION_R50_NE REUNION_R50_SE REUNION_R50_SW REUNION_R50_NW REUNION_R64_NE REUNION_R64_SE REUNION_R64_SW REUNION_R64_NW BOM_LAT BOM_LON BOM_TYPE BOM_WIND BOM_PRES BOM_TNUM BOM_CI BOM_RMW BOM_R34_NE BOM_R34_SE BOM_R34_SW BOM_R34_NW BOM_R50_NE BOM_R50_SE BOM_R50_SW BOM_R50_NW BOM_R64_NE BOM_R64_SE BOM_R64_SW BOM_R64_NW BOM_ROCI BOM_POCI BOM_EYE BOM_POS_METHOD BOM_PRES_METHOD NADI_LAT NADI_LON NADI_CAT NADI_WIND NADI_PRES WELLINGTON_LAT WELLINGTON_LON WELLINGTON_WIND WELLINGTON_PRES DS824_LAT DS824_LON DS824_STAGE DS824_WIND DS824_PRES TD9636_LAT TD9636_LON TD9636_STAGE TD9636_WIND TD9636_PRES TD9635_LAT TD9635_LON TD9635_WIND TD9635_PRES TD9635_ROCI NEUMANN_LAT NEUMANN_LON NEUMANN_CLASS NEUMANN_WIND NEUMANN_PRES MLC_LAT MLC_LON MLC_CLASS MLC_WIND MLC_PRES USA_GUST BOM_GUST BOM_GUST_PER REUNION_GUST REUNION_GUST_PER USA_SEAHGT USA_SEARAD_NE USA_SEARAD_SE USA_SEARAD_SW USA_SEARAD_NW STORM_SPEED STORM_DIR
1942215N16275 1942 34 NA CS NOT_NAMED 1942-08-03 00:00:00 TS 16.2000 -85.2000 30 hurdat_atl main 33 33 O_____________ hurdat_atl AL011942 16.2000 -85.2000 TD 30 -1 8 277
1942215N16275 1942 34 NA CS NOT_NAMED 1942-08-03 03:00:00 TS 16.2477 -85.5874 main 33 33 P_____________ AL011942 16.2477 -85.5874 TD 30 -1 8 277
1942215N16275 1942 34 NA CS NOT_NAMED 1942-08-03 06:00:00 TS 16.3000 -86.0000 30 hurdat_atl main 46 46 O_____________ hurdat_atl AL011942 16.3000 -86.0000 TD 30 -1 8 278
1942215N16275 1942 34 NA CS NOT_NAMED 1942-08-03 09:00:00 TS 16.3698 -86.4627 main 67 67 P_____________ AL011942 16.3698 -86.4627 TD 32 -1 10 282
1942215N16275 1942 34 NA CS NOT_NAMED 1942-08-03 12:00:00 TS 16.5000 -87.0000 35 hurdat_atl main 78 72 O_____________ hurdat_atl AL011942 16.5000 -87.0000 TS 35 0 12 288
1942215N16275 1942 34 NA CS NOT_NAMED 1942-08-03 15:00:00 TS 16.7198 -87.6126 main 72 0 P_____________ AL011942 16.7198 -87.6126 TS 35 0 13 292
1942215N16275 1942 34 NA CS NOT_NAMED 1942-08-03 18:00:00 TS 17.0000 -88.3000 35 hurdat_atl main 0 0 O_____________ hurdat_atl AL011942 17.0000 -88.3000 TS 35 0 15 293
1942215N16275 1942 34 NA NA NOT_NAMED 1942-08-03 21:00:00 TS 17.2848 -89.0278 main 0 0 P_____________ AL011942 17.2848 -89.0278 TS 32 -1 16 293
1942215N16275 1942 34 NA NA NOT_NAMED 1942-08-04 00:00:00 TS 17.6000 -89.8000 30 hurdat_atl main 0 0 O_____________ hurdat_atl AL011942 17.6000 -89.8000 TD 30 -1 16 294
1942215N16275 1942 34 NA NA NOT_NAMED 1942-08-04 03:00:00 TS 17.9423 -90.5927 main 0 0 P_____________ AL011942 17.9423 -90.5927 TD 30 -1 17 295
1942215N16275 1942 34 NA NA NOT_NAMED 1942-08-04 06:00:00 TS 18.3000 -91.4000 30 hurdat_atl main 0 0 O_____________ hurdat_atl AL011942 18.3000 -91.4000 TD 30 -1 17 295
1942215N16275 1942 34 NA NA NOT_NAMED 1942-08-04 09:00:00 TS 18.6498 -92.2152 main 0 0 P_____________ AL011942 18.6498 -92.2152 TD 30 -1 17 295
1942215N16275 1942 34 NA GM NOT_NAMED 1942-08-04 12:00:00 TS 19.0000 -93.0000 30 hurdat_atl main 54 54 O_____________ hurdat_atl AL011942 19.0000 -93.0000 TD 30 -1 16 296
1942215N16275 1942 34 NA GM NOT_NAMED 1942-08-04 15:00:00 TS 19.3496 -93.7228 main 111 111 P_____________ AL011942 19.3496 -93.7228 TD 32 -1 15 298
1942215N16275 1942 34 NA GM NOT_NAMED 1942-08-04 18:00:00 TS 19.7000 -94.4000 35 hurdat_atl main 138 133 O_____________ hurdat_atl AL011942 19.7000 -94.4000 TS 35 0 14 299
1942215N16275 1942 34 NA GM NOT_NAMED 1942-08-04 21:00:00 TS 20.0498 -95.0653 main 136 92 P_____________ AL011942 20.0498 -95.0653 TS 40 0 14 300
1942215N16275 1942 34 NA GM NOT_NAMED 1942-08-05 00:00:00 TS 20.4000 -95.7000 45 hurdat_atl main 92 68 O_____________ hurdat_atl AL011942 20.4000 -95.7000 TS 45 0 14 301
1942215N16275 1942 34 NA GM NOT_NAMED 1942-08-05 03:00:00 TS 20.7498 -96.3153 main 68 47 P_____________ AL011942 20.7498 -96.3153 TS 47 0 13 302
1942215N16275 1942 34 NA GM NOT_NAMED 1942-08-05 06:00:00 TS 21.1000 -96.9000 50 hurdat_atl main 47 0 O_____________ hurdat_atl AL011942 21.1000 -96.9000 TS 50 0 13 303
1942215N16275 1942 34 NA GM NOT_NAMED 1942-08-05 09:00:00 TS 21.4498 -97.4653 main 0 0 P_____________ AL011942 21.4498 -97.4653 TS 45 0 12 304
1942215N16275 1942 34 NA NA NOT_NAMED 1942-08-05 12:00:00 TS 21.8000 -98.0000 40 hurdat_atl main 0 0 O_____________ hurdat_atl AL011942 21.8000 -98.0000 TS 40 0 12 306
1942215N16275 1942 34 NA NA NOT_NAMED 1942-08-05 15:00:00 TS 22.1503 -98.5070 main 0 0 P_____________ AL011942 22.1503 -98.5070 TS 32 -1 12 307
1942215N16275 1942 34 NA NA NOT_NAMED 1942-08-05 18:00:00 TS 22.5000 -99.0000 25 hurdat_atl main 0 O_____________ hurdat_atl AL011942 22.5000 -99.0000 TD 25 -1 12 307

About IBTrACS Database

This database is a web-friendly format of International Best Track Archive for Climate Stewardship (IBTrACS), a global best track data archive curated by NOAA dating back to 1842.

Updated: 2021-12-08